createdAt,value
2023-05-05T00:01:34.023Z,100751.91
2023-05-05T00:04:19.458Z,100754.50
2023-05-05T00:07:04.693Z,100753.66
2023-05-05T00:09:50.424Z,100752.75
2023-05-05T00:12:35.355Z,100745.84
2023-05-05T00:15:20.776Z,100752.75
2023-05-05T00:18:06.307Z,100745.81
2023-05-05T00:20:51.757Z,100751.00
2023-05-05T00:23:37.017Z,100740.63
2023-05-05T00:26:22.278Z,100744.06
2023-05-05T00:29:07.484Z,100732.78
2023-05-05T00:31:52.957Z,100731.94
2023-05-05T00:34:37.995Z,100724.13
2023-05-05T00:37:23.433Z,100712.81
2023-05-05T00:40:09.761Z,100714.59
2023-05-05T00:42:55.427Z,100709.38
2023-05-05T00:45:41.018Z,100711.97
2023-05-05T00:48:26.086Z,100709.31
2023-05-05T00:51:11.634Z,100705.91
2023-05-05T00:53:57.113Z,100691.16
2023-05-05T00:56:42.209Z,100698.06
2023-05-05T00:59:28.744Z,100700.66
2023-05-05T01:02:14.134Z,100707.56
2023-05-05T01:04:59.515Z,100698.91
2023-05-05T01:08:13.603Z,100696.31
2023-05-05T01:11:07.238Z,100685.91
2023-05-05T01:14:08.795Z,100694.53
2023-05-05T01:16:59.054Z,100697.16
2023-05-05T01:20:02.583Z,100679.78
2023-05-05T01:22:57.062Z,100691.06
2023-05-05T01:26:08.158Z,100678.06
2023-05-05T01:29:08.808Z,100666.81
2023-05-05T01:31:57.971Z,100676.31
2023-05-05T01:35:00.143Z,100678.91
2023-05-05T01:38:13.026Z,100671.97
2023-05-05T01:41:04.760Z,100676.31
2023-05-05T01:43:52.549Z,100677.16
2023-05-05T01:46:38.030Z,100679.78
2023-05-05T01:49:24.118Z,100667.66
2023-05-05T01:52:10.843Z,100662.41
2023-05-05T01:54:58.232Z,100661.56
2023-05-05T01:57:45.560Z,100673.72
2023-05-05T02:00:32.841Z,100671.09
2023-05-05T02:03:20.432Z,100668.47
2023-05-05T02:06:08.146Z,100662.38
2023-05-05T02:08:54.276Z,100669.31
2023-05-05T02:11:40.380Z,100666.72
2023-05-05T02:14:28.734Z,100652.00
2023-05-05T02:17:16.459Z,100658.03
2023-05-05T02:20:03.404Z,100663.19
2023-05-05T02:22:49.047Z,100665.81
2023-05-05T02:25:41.657Z,100660.56
2023-05-05T02:28:35.937Z,100657.13
2023-05-05T02:31:23.872Z,100668.28
2023-05-05T02:34:11.060Z,100666.66
2023-05-05T02:37:00.652Z,100657.13
2023-05-05T02:39:53.728Z,100655.41
2023-05-05T02:42:42.932Z,100645.00
2023-05-05T02:45:28.436Z,100655.34
2023-05-05T02:48:13.913Z,100650.16
2023-05-05T02:50:59.366Z,100650.16
2023-05-05T02:53:44.724Z,100648.44
2023-05-05T02:56:39.501Z,100662.25
2023-05-05T02:59:38.186Z,100652.78
2023-05-05T03:02:44.360Z,100645.84
2023-05-05T03:05:41.431Z,100643.25
2023-05-05T03:08:32.091Z,100660.59
2023-05-05T03:11:28.995Z,100665.72
2023-05-05T03:14:17.810Z,100667.47
2023-05-05T03:17:03.384Z,100671.78
2023-05-05T03:19:49.294Z,100657.06
2023-05-05T03:22:37.854Z,100664.00
2023-05-05T03:25:23.083Z,100659.69
2023-05-05T03:28:08.112Z,100669.19
2023-05-05T03:30:54.335Z,100666.53
2023-05-05T03:33:39.515Z,100678.72
2023-05-05T03:36:26.159Z,100687.41
2023-05-05T03:39:13.177Z,100675.28
2023-05-05T03:41:58.570Z,100671.75
2023-05-05T03:44:43.915Z,100671.75
2023-05-05T03:47:29.428Z,100679.59
2023-05-05T03:50:14.697Z,100682.13
2023-05-05T03:53:00.118Z,100679.53
2023-05-05T03:55:45.525Z,100693.41
2023-05-05T03:58:31.052Z,100687.28
2023-05-05T04:01:16.193Z,100691.63
2023-05-05T04:04:02.324Z,100713.28
2023-05-05T04:06:47.678Z,100708.06
2023-05-05T04:09:33.095Z,100711.50
2023-05-05T04:12:18.484Z,100705.47
2023-05-05T04:15:04.434Z,100705.28
2023-05-05T04:17:49.986Z,100713.09
2023-05-05T04:20:35.188Z,100717.50
2023-05-05T04:23:20.059Z,100711.34
2023-05-05T04:26:05.007Z,100704.59
2023-05-05T04:28:49.836Z,100705.47
2023-05-05T04:31:35.437Z,100705.47
2023-05-05T04:34:20.689Z,100710.69
2023-05-05T04:37:05.688Z,100698.59
2023-05-05T04:39:51.568Z,100696.06
2023-05-05T04:42:36.908Z,100694.34
2023-05-05T04:45:21.853Z,100715.09
2023-05-05T04:48:07.201Z,100704.75
2023-05-05T04:50:55.765Z,100711.63
2023-05-05T04:53:41.210Z,100711.56
2023-05-05T04:56:26.443Z,100724.69
2023-05-05T04:59:11.471Z,100717.72
2023-05-05T05:01:57.032Z,100721.16
2023-05-05T05:04:42.183Z,100736.72
2023-05-05T05:07:27.668Z,100749.69
2023-05-05T05:10:13.020Z,100768.63
2023-05-05T05:12:58.634Z,100796.38
2023-05-05T05:15:43.959Z,100816.00
2023-05-05T05:18:29.349Z,100830.31
2023-05-05T05:21:14.517Z,100832.03
2023-05-05T05:23:59.881Z,100821.47
2023-05-05T05:26:45.558Z,100816.47
2023-05-05T05:29:31.002Z,100822.47
2023-05-05T05:32:16.216Z,100810.22
2023-05-05T05:35:01.548Z,100815.47
2023-05-05T05:37:46.919Z,100809.41
2023-05-05T05:40:32.178Z,100806.91
2023-05-05T05:43:17.535Z,100803.72
2023-05-05T05:46:03.081Z,100802.94
2023-05-05T05:48:48.447Z,100803.69
2023-05-05T05:51:33.783Z,100800.31
2023-05-05T05:54:19.151Z,100801.97
2023-05-05T05:57:04.065Z,100808.13
2023-05-05T05:59:49.593Z,100816.72
2023-05-05T06:02:34.934Z,100811.63
2023-05-05T06:05:20.252Z,100814.19
2023-05-05T06:08:05.759Z,100808.38
2023-05-05T06:10:50.880Z,100806.69
2023-05-05T06:13:36.043Z,100806.81
2023-05-05T06:16:21.524Z,100802.50
2023-05-05T06:19:06.898Z,100793.84
2023-05-05T06:21:52.238Z,100794.75
2023-05-05T06:24:37.653Z,100788.75
2023-05-05T06:27:23.163Z,100787.91
2023-05-05T06:30:09.164Z,100800.81
2023-05-05T06:32:54.728Z,100808.66
2023-05-05T06:35:39.930Z,100819.84
2023-05-05T06:38:25.410Z,100825.06
2023-05-05T06:41:10.954Z,100818.97
2023-05-05T06:43:56.151Z,100817.28
2023-05-05T06:46:41.086Z,100833.75
2023-05-05T06:49:26.219Z,100824.34
2023-05-05T06:52:11.148Z,100822.69
2023-05-05T06:54:56.414Z,100827.19
2023-05-05T06:57:41.788Z,100827.28
2023-05-05T07:00:26.911Z,100822.97
2023-05-05T07:03:12.350Z,100827.41
2023-05-05T07:05:57.793Z,100819.63
2023-05-05T07:08:43.117Z,100819.66
2023-05-05T07:11:28.575Z,100822.25
2023-05-05T07:14:14.047Z,100825.75
2023-05-05T07:16:59.652Z,100835.22
2023-05-05T07:19:44.957Z,100822.09
2023-05-05T07:22:30.170Z,100829.78
2023-05-05T07:25:15.235Z,100821.81
2023-05-05T07:28:00.922Z,100813.13
2023-05-05T07:30:46.004Z,100811.41
2023-05-05T07:33:30.985Z,100816.38
2023-05-05T07:36:18.002Z,100811.75
2023-05-05T07:39:03.400Z,100794.50
2023-05-05T07:41:48.211Z,100803.00
2023-05-05T07:44:33.876Z,100791.84
2023-05-05T07:47:19.362Z,100792.22
2023-05-05T07:50:05.227Z,100813.91
2023-05-05T07:52:56.331Z,100813.97
2023-05-05T07:55:47.233Z,100815.72
2023-05-05T07:58:32.786Z,100818.41
2023-05-05T08:01:18.014Z,100828.78
2023-05-05T08:04:03.203Z,100837.44
2023-05-05T08:06:48.563Z,100833.13
2023-05-05T08:09:37.606Z,100816.59
2023-05-05T08:12:22.482Z,100808.94
2023-05-05T08:15:07.905Z,100823.63
2023-05-05T08:17:53.451Z,100826.06
2023-05-05T08:20:38.370Z,100810.34
2023-05-05T08:23:23.305Z,100805.78
2023-05-05T08:26:08.578Z,100800.56
2023-05-05T08:28:53.590Z,100809.19
2023-05-05T08:31:38.936Z,100784.50
2023-05-05T08:34:24.250Z,100769.53
2023-05-05T08:37:09.682Z,100781.66
2023-05-05T08:39:56.861Z,100774.31
2023-05-05T08:42:42.781Z,100779.59
2023-05-05T08:45:29.278Z,100783.81
2023-05-05T08:48:18.559Z,100788.94
2023-05-05T08:51:06.557Z,100783.13
2023-05-05T08:53:54.762Z,100798.84
2023-05-05T08:56:40.769Z,100795.19
2023-05-05T08:59:26.539Z,100812.56
2023-05-05T09:02:12.209Z,100807.94
2023-05-05T09:04:57.801Z,100786.56
2023-05-05T09:07:43.925Z,100779.81
2023-05-05T09:10:30.823Z,100770.19
2023-05-05T09:13:16.306Z,100796.38
2023-05-05T09:16:01.568Z,100782.13
2023-05-05T09:18:46.830Z,100761.88
2023-05-05T09:21:32.300Z,100752.41
2023-05-05T09:24:17.685Z,100733.09
2023-05-05T09:27:21.865Z,100725.81
2023-05-05T09:30:08.095Z,100749.75
2023-05-05T09:32:55.060Z,100732.66
2023-05-05T09:35:51.773Z,100749.13
2023-05-05T09:38:37.013Z,100713.38
2023-05-05T09:41:37.792Z,100707.16
2023-05-05T09:44:37.169Z,100653.75
2023-05-05T09:47:29.421Z,100653.84
2023-05-05T09:50:19.621Z,100694.03
2023-05-05T09:53:05.182Z,100684.22
2023-05-05T09:55:58.301Z,100671.94
2023-05-05T09:58:43.583Z,100626.41
2023-05-05T10:01:29.160Z,100650.06
2023-05-05T10:04:30.534Z,100649.50
2023-05-05T10:07:25.068Z,100652.56
2023-05-05T10:10:12.391Z,100695.34
2023-05-05T10:12:57.818Z,100669.41
2023-05-05T10:15:45.639Z,100663.72
2023-05-05T10:18:32.436Z,100638.34
2023-05-05T10:21:20.383Z,100651.50
2023-05-05T10:24:15.983Z,100680.75
2023-05-05T10:27:07.640Z,100622.44
2023-05-05T10:30:07.960Z,100626.63
2023-05-05T10:33:12.328Z,100666.69
2023-05-05T10:36:01.845Z,100637.13
2023-05-05T10:38:47.750Z,100618.91
2023-05-05T10:41:33.250Z,100637.69
2023-05-05T10:44:19.343Z,100677.72
2023-05-05T10:47:06.155Z,100686.47
2023-05-05T10:50:16.568Z,100697.66
2023-05-05T10:53:28.560Z,100688.38
2023-05-05T10:56:25.537Z,100700.16
2023-05-05T10:59:46.873Z,100657.47
2023-05-05T11:02:32.323Z,100635.31
2023-05-05T11:05:17.947Z,100666.50
2023-05-05T11:08:26.636Z,100654.25
2023-05-05T11:11:12.785Z,100625.19
2023-05-05T11:14:20.822Z,100648.94
2023-05-05T11:17:44.989Z,100622.16
2023-05-05T11:20:36.375Z,100637.44
2023-05-05T11:23:22.013Z,100627.34
2023-05-05T11:26:07.211Z,100613.91
2023-05-05T11:28:57.685Z,100632.13
2023-05-05T11:31:43.628Z,100615.63
2023-05-05T11:34:28.883Z,100611.19
2023-05-05T11:37:15.999Z,100598.00
2023-05-05T11:40:16.600Z,100589.22
2023-05-05T11:43:06.278Z,100618.41
2023-05-05T11:46:12.653Z,100612.28
2023-05-05T11:48:57.839Z,100598.28
2023-05-05T11:51:43.781Z,100614.25
2023-05-05T11:54:29.513Z,100570.00
2023-05-05T11:57:15.734Z,100599.03
2023-05-05T12:00:07.183Z,100585.78
2023-05-05T12:02:56.277Z,100542.13
2023-05-05T12:05:41.952Z,100555.03
2023-05-05T12:08:28.099Z,100550.03
2023-05-05T12:11:13.274Z,100570.84
2023-05-05T12:14:09.418Z,100554.84
2023-05-05T12:16:58.774Z,100553.00
2023-05-05T12:19:54.803Z,100549.16
2023-05-05T12:22:40.157Z,100544.94
2023-05-05T12:25:25.304Z,100548.59
2023-05-05T12:28:10.642Z,100543.81
2023-05-05T12:30:56.757Z,100568.63
2023-05-05T12:33:42.829Z,100568.16
2023-05-05T12:36:30.367Z,100561.28
2023-05-05T12:39:15.700Z,100571.44
2023-05-05T12:42:05.013Z,100570.75
2023-05-05T12:44:50.066Z,100549.66
2023-05-05T12:47:35.295Z,100529.81
2023-05-05T12:50:33.078Z,100544.03
2023-05-05T12:53:22.418Z,100582.59
2023-05-05T12:56:30.293Z,100596.50
2023-05-05T12:59:21.581Z,100535.50
2023-05-05T13:02:08.009Z,100539.50
2023-05-05T13:04:53.986Z,100476.53
2023-05-05T13:07:50.165Z,100499.72
2023-05-05T13:10:35.538Z,100504.16
2023-05-05T13:13:20.863Z,100461.09
2023-05-05T13:16:07.242Z,100487.19
2023-05-05T13:18:52.906Z,100467.31
2023-05-05T13:21:38.219Z,100492.88
2023-05-05T13:24:34.914Z,100496.13
2023-05-05T13:27:27.988Z,100533.53
2023-05-05T13:30:13.895Z,100558.88
2023-05-05T13:32:59.650Z,100523.81
2023-05-05T13:35:45.042Z,100532.63
2023-05-05T13:38:30.430Z,100535.81
2023-05-05T13:41:15.864Z,100515.94
2023-05-05T13:44:01.938Z,100515.75
2023-05-05T13:46:47.472Z,100536.97
2023-05-05T13:49:32.681Z,100522.91
2023-05-05T13:52:17.940Z,100554.59
2023-05-05T13:55:04.547Z,100551.72
2023-05-05T13:57:50.798Z,100560.56
2023-05-05T14:00:36.835Z,100558.41
2023-05-05T14:03:22.783Z,100576.81
2023-05-05T14:06:09.313Z,100597.81
2023-05-05T14:08:54.430Z,100620.69
2023-05-05T14:11:39.948Z,100644.03
2023-05-05T14:14:25.254Z,100659.28
2023-05-05T14:17:11.226Z,100672.63
2023-05-05T14:19:56.133Z,100689.38
2023-05-05T14:22:41.527Z,100698.28
2023-05-05T14:25:27.090Z,100770.78
2023-05-05T14:28:12.527Z,100821.22
2023-05-05T14:30:58.050Z,100843.78
2023-05-05T14:33:43.210Z,100855.63
2023-05-05T14:36:28.638Z,100857.44
2023-05-05T14:39:14.077Z,100857.53
2023-05-05T14:41:59.423Z,100848.97
2023-05-05T14:44:44.849Z,100853.31
2023-05-05T14:47:29.771Z,100865.59
2023-05-05T14:50:15.201Z,100855.19
2023-05-05T14:53:00.801Z,100858.69
2023-05-05T14:55:46.561Z,100854.38
2023-05-05T14:58:31.572Z,100849.16
2023-05-05T15:01:16.784Z,100847.38
2023-05-05T15:04:02.042Z,100849.09
2023-05-05T15:06:47.460Z,100863.03
2023-05-05T15:09:32.893Z,100846.56
2023-05-05T15:12:18.221Z,100855.22
2023-05-05T15:15:04.081Z,100859.53
2023-05-05T15:17:49.206Z,100856.97
2023-05-05T15:20:34.576Z,100847.41
2023-05-05T15:23:19.751Z,100856.09
2023-05-05T15:26:04.589Z,100860.50
2023-05-05T15:28:50.376Z,100839.66
2023-05-05T15:31:37.274Z,100842.25
2023-05-05T15:34:22.587Z,100849.22
2023-05-05T15:37:07.982Z,100848.31
2023-05-05T15:39:53.473Z,100849.19
2023-05-05T15:42:38.820Z,100845.72
2023-05-05T15:45:24.447Z,100842.25
2023-05-05T15:48:09.678Z,100844.81
2023-05-05T15:50:55.047Z,100846.59
2023-05-05T15:53:40.318Z,100850.06
2023-05-05T15:56:26.193Z,100857.88
2023-05-05T15:59:11.423Z,100863.06
2023-05-05T16:01:56.353Z,100861.38
2023-05-05T16:04:41.304Z,100866.56
2023-05-05T16:07:26.934Z,100878.75
2023-05-05T16:10:12.270Z,100877.88
2023-05-05T16:12:57.562Z,100877.00
2023-05-05T16:15:43.027Z,100879.63
2023-05-05T16:18:31.283Z,100887.44
2023-05-05T16:21:16.487Z,100888.31
2023-05-05T16:24:01.994Z,100898.75
2023-05-05T16:26:47.375Z,100911.75
2023-05-05T16:29:32.795Z,100912.66
2023-05-05T16:32:17.985Z,100914.41
2023-05-05T16:35:03.362Z,100913.53
2023-05-05T16:37:48.813Z,100910.91
2023-05-05T16:40:36.136Z,100906.53
2023-05-05T16:43:21.452Z,100906.56
2023-05-05T16:46:07.038Z,100902.19
2023-05-05T16:48:52.200Z,100909.16
2023-05-05T16:51:37.672Z,100909.16
2023-05-05T16:54:22.987Z,100909.16
2023-05-05T16:57:08.601Z,100910.00
2023-05-05T16:59:57.529Z,100926.44
2023-05-05T17:02:42.711Z,100921.25
2023-05-05T17:05:28.220Z,100920.38
2023-05-05T17:08:14.201Z,100915.19
2023-05-05T17:10:59.374Z,100918.59
2023-05-05T17:13:44.424Z,100928.16
2023-05-05T17:16:29.658Z,100929.00
2023-05-05T17:19:15.015Z,100926.25
2023-05-05T17:22:00.347Z,100933.22
2023-05-05T17:24:45.706Z,100946.28
2023-05-05T17:27:31.027Z,100932.41
2023-05-05T17:30:16.330Z,100934.94
2023-05-05T17:33:01.733Z,100934.88
2023-05-05T17:35:47.588Z,100947.91
2023-05-05T17:38:32.735Z,100949.66
2023-05-05T17:41:18.346Z,100949.56
2023-05-05T17:44:03.612Z,100945.09
2023-05-05T17:46:49.094Z,100939.13
2023-05-05T17:49:34.470Z,100939.88
2023-05-05T17:52:23.336Z,100932.09
2023-05-05T17:55:10.410Z,100932.75
2023-05-05T17:57:55.794Z,100930.94
2023-05-05T18:00:41.220Z,100931.78
2023-05-05T18:03:26.665Z,100933.66
2023-05-05T18:06:11.921Z,100936.97
2023-05-05T18:08:57.353Z,100930.94
2023-05-05T18:11:42.871Z,100920.47
2023-05-05T18:14:28.432Z,100923.91
2023-05-05T18:17:13.697Z,100923.84
2023-05-05T18:19:59.145Z,100920.28
2023-05-05T18:22:44.596Z,100927.00
2023-05-05T18:25:29.913Z,100931.38
2023-05-05T18:28:15.219Z,100936.56
2023-05-05T18:31:00.198Z,100932.19
2023-05-05T18:33:47.525Z,100944.44
2023-05-05T18:36:32.936Z,100947.97
2023-05-05T18:39:17.773Z,100947.97
2023-05-05T18:42:02.716Z,100943.56
2023-05-05T18:44:48.124Z,100950.56
2023-05-05T18:47:33.701Z,100940.72
2023-05-05T18:50:18.902Z,100948.34
2023-05-05T18:53:04.369Z,100939.63
2023-05-05T18:55:49.644Z,100948.38
2023-05-05T18:58:35.020Z,100945.75
2023-05-05T19:01:20.429Z,100946.53
2023-05-05T19:04:15.494Z,100950.00
2023-05-05T19:07:07.938Z,100948.34
2023-05-05T19:09:53.532Z,100948.16
2023-05-05T19:12:38.817Z,100961.19
2023-05-05T19:15:24.503Z,100955.91
2023-05-05T19:18:09.841Z,100940.25
2023-05-05T19:20:55.041Z,100942.75
2023-05-05T19:23:40.473Z,100947.03
2023-05-05T19:26:25.345Z,100943.50
2023-05-05T19:29:10.826Z,100942.63
2023-05-05T19:31:55.974Z,100943.47
2023-05-05T19:34:41.364Z,100946.09
2023-05-05T19:37:26.826Z,100957.34
2023-05-05T19:40:12.826Z,100964.25
2023-05-05T19:42:58.183Z,100976.59
2023-05-05T19:45:43.523Z,100988.75
2023-05-05T19:48:28.790Z,100979.28
2023-05-05T19:51:14.299Z,100979.28
2023-05-05T19:53:59.563Z,100977.53
2023-05-05T19:56:45.055Z,100961.16
2023-05-05T19:59:30.531Z,100963.59
2023-05-05T20:02:16.220Z,100969.81
2023-05-05T20:05:01.669Z,100966.97
2023-05-05T20:07:46.657Z,100970.19
2023-05-05T20:10:32.310Z,100969.25
2023-05-05T20:13:18.006Z,100968.31
2023-05-05T20:16:03.493Z,100977.66
2023-05-05T20:18:48.946Z,100969.13
2023-05-05T20:21:34.663Z,100971.88
2023-05-05T20:24:19.744Z,100970.03
2023-05-05T20:27:05.150Z,100974.41
2023-05-05T20:29:50.553Z,100968.41
2023-05-05T20:32:36.629Z,100965.03
2023-05-05T20:35:21.715Z,100972.03
2023-05-05T20:38:07.163Z,100961.50
2023-05-05T20:40:52.566Z,100966.44
2023-05-05T20:43:39.021Z,100972.59
2023-05-05T20:46:24.227Z,100973.16
2023-05-05T20:49:09.665Z,100981.06
2023-05-05T20:51:55.169Z,100987.06
2023-05-05T20:54:40.590Z,100994.03
2023-05-05T20:57:25.489Z,100993.06
2023-05-05T21:00:11.154Z,100984.25
2023-05-05T21:02:56.684Z,100978.72
2023-05-05T21:05:42.321Z,100987.22
2023-05-05T21:08:27.327Z,100991.50
2023-05-05T21:11:12.833Z,100985.25
2023-05-05T21:13:58.068Z,100990.44
2023-05-05T21:16:43.610Z,100996.28
2023-05-05T21:19:28.995Z,100997.03
2023-05-05T21:22:14.185Z,100993.47
2023-05-05T21:25:15.596Z,100993.53
2023-05-05T21:28:00.715Z,100996.06
2023-05-05T21:30:54.907Z,100998.81
2023-05-05T21:33:50.175Z,100992.91
2023-05-05T21:36:35.407Z,100997.19
2023-05-05T21:39:20.938Z,100998.91
2023-05-05T21:42:06.221Z,101002.38
2023-05-05T21:44:51.577Z,100994.53
2023-05-05T21:47:37.182Z,100998.09
2023-05-05T21:50:22.663Z,101000.75
2023-05-05T21:53:08.048Z,101003.44
2023-05-05T21:55:53.493Z,100992.06
2023-05-05T21:58:39.020Z,100996.31
2023-05-05T22:01:24.507Z,101004.22
2023-05-05T22:04:09.809Z,101007.34
2023-05-05T22:06:55.109Z,101016.91
2023-05-05T22:09:40.484Z,101014.25
2023-05-05T22:12:25.457Z,101022.06
2023-05-05T22:15:11.523Z,101023.88
2023-05-05T22:17:56.945Z,101022.97
2023-05-05T22:20:42.335Z,101021.97
2023-05-05T22:23:28.459Z,101022.03
2023-05-05T22:26:13.789Z,101019.38
2023-05-05T22:28:59.186Z,101025.59
2023-05-05T22:31:44.383Z,101023.00
2023-05-05T22:34:29.858Z,101028.59
2023-05-05T22:37:15.462Z,101036.91
2023-05-05T22:40:01.081Z,101027.97
2023-05-05T22:42:46.426Z,101037.25
2023-05-05T22:45:31.787Z,101030.22
2023-05-05T22:48:17.316Z,101036.78
2023-05-05T22:51:02.577Z,101030.63
2023-05-05T22:53:47.926Z,101032.47
2023-05-05T22:56:33.206Z,101031.88
2023-05-05T22:59:18.646Z,101027.22
2023-05-05T23:02:03.874Z,101022.22
2023-05-05T23:04:49.177Z,101027.56
2023-05-05T23:07:34.609Z,101020.03
2023-05-05T23:10:19.906Z,101015.59
2023-05-05T23:13:05.278Z,101019.34
2023-05-05T23:15:50.537Z,101019.28
2023-05-05T23:18:36.383Z,101024.28
2023-05-05T23:21:21.773Z,101020.38
2023-05-05T23:24:07.241Z,101022.06
2023-05-05T23:26:52.973Z,101029.44
2023-05-05T23:29:37.831Z,101033.09
2023-05-05T23:32:23.218Z,101036.03
2023-05-05T23:35:09.135Z,101043.09
2023-05-05T23:37:54.592Z,101046.50
2023-05-05T23:40:40.888Z,101051.94
2023-05-05T23:43:26.102Z,101054.28
2023-05-05T23:46:11.553Z,101046.53
2023-05-05T23:48:56.956Z,101044.09
2023-05-05T23:51:41.949Z,101040.78
2023-05-05T23:54:27.436Z,101040.91
2023-05-05T23:57:12.808Z,101048.91
2023-05-05T23:59:58.437Z,101053.06
